createdAt,value
2017-08-22T00:00:21.578Z,14.2
2017-08-22T00:01:22.287Z,14.0
2017-08-22T00:02:22.971Z,14.0
2017-08-22T00:03:23.700Z,14.0
2017-08-22T00:04:24.448Z,14.0
2017-08-22T00:05:25.141Z,13.9
2017-08-22T00:06:26.253Z,14.0
2017-08-22T00:07:26.975Z,13.9
2017-08-22T00:08:27.732Z,14.0
2017-08-22T00:09:28.433Z,14.0
2017-08-22T00:10:29.114Z,13.9
2017-08-22T00:11:29.844Z,13.9
2017-08-22T00:12:30.621Z,13.8
2017-08-22T00:13:31.624Z,13.9
2017-08-22T00:14:32.324Z,13.9
2017-08-22T00:15:33.140Z,13.9
2017-08-22T00:16:33.812Z,13.8
2017-08-22T00:17:34.539Z,13.9
2017-08-22T00:18:35.270Z,13.8
2017-08-22T00:19:35.986Z,13.8
2017-08-22T00:20:36.761Z,13.9
2017-08-22T00:21:37.520Z,13.9
2017-08-22T00:22:38.293Z,13.9
2017-08-22T00:23:39.073Z,13.9
2017-08-22T00:24:39.759Z,13.9
2017-08-22T00:25:40.474Z,13.9
2017-08-22T00:26:41.156Z,13.8
2017-08-22T00:27:41.883Z,13.8
2017-08-22T00:28:42.598Z,13.8
2017-08-22T00:29:43.533Z,13.8
2017-08-22T00:30:44.283Z,13.8
2017-08-22T00:31:45.014Z,13.8
2017-08-22T00:32:45.794Z,13.7
2017-08-22T00:33:46.544Z,13.7
2017-08-22T00:34:47.289Z,13.7
2017-08-22T00:35:48.019Z,13.7
2017-08-22T00:36:48.753Z,13.6
2017-08-22T00:37:49.492Z,13.5
2017-08-22T00:38:50.238Z,13.5
2017-08-22T00:39:51.062Z,13.5
2017-08-22T00:40:51.814Z,13.5
2017-08-22T00:41:52.540Z,13.5
2017-08-22T00:42:53.358Z,13.5
2017-08-22T00:43:54.055Z,13.6
2017-08-22T00:44:54.786Z,13.6
2017-08-22T00:45:55.557Z,13.6
2017-08-22T00:46:56.292Z,13.6
2017-08-22T00:47:57.074Z,13.6
2017-08-22T00:48:57.791Z,13.6
2017-08-22T00:49:58.515Z,13.7
2017-08-22T00:50:59.370Z,13.6
2017-08-22T00:52:00.068Z,13.6
2017-08-22T00:53:00.852Z,13.5
2017-08-22T00:54:01.567Z,13.5
2017-08-22T00:55:02.341Z,13.5
2017-08-22T00:56:03.024Z,13.5
2017-08-22T00:57:03.785Z,13.4
2017-08-22T00:58:04.600Z,13.4
2017-08-22T00:59:05.301Z,13.3
2017-08-22T01:00:06.119Z,13.3
2017-08-22T01:01:06.839Z,13.3
2017-08-22T01:02:07.523Z,13.3
2017-08-22T01:03:08.260Z,13.3
2017-08-22T01:04:09.046Z,13.3
2017-08-22T01:05:09.771Z,13.3
2017-08-22T01:06:10.547Z,13.1
2017-08-22T01:07:11.287Z,13.1
2017-08-22T01:08:11.965Z,13.1
2017-08-22T01:09:12.684Z,13.2
2017-08-22T01:10:13.453Z,13.3
2017-08-22T01:11:14.206Z,13.3
2017-08-22T01:12:14.984Z,13.3
2017-08-22T01:13:15.956Z,13.3
2017-08-22T01:14:16.649Z,13.2
2017-08-22T01:15:17.439Z,13.3
2017-08-22T01:16:18.365Z,13.3
2017-08-22T01:22:22.772Z,13.4
2017-08-22T01:24:24.444Z,13.4
2017-08-22T01:29:28.361Z,13.2
2017-08-22T01:31:30.160Z,13.2
2017-08-22T01:41:52.335Z,13.3
2017-08-22T01:48:57.556Z,13.3
2017-08-22T01:49:58.518Z,13.2
2017-08-22T01:52:00.148Z,13.2
2017-08-22T01:53:01.088Z,13.2
2017-08-22T02:16:32.842Z,13.3
2017-08-22T02:31:44.198Z,12.9
2017-08-22T03:01:04.944Z,12.7
2017-08-22T03:09:10.793Z,12.4
2017-08-22T03:13:13.806Z,12.6
2017-08-22T03:28:24.540Z,12.7
2017-08-22T03:48:53.752Z,12.3
2017-08-22T03:50:55.329Z,12.3
2017-08-22T04:02:03.365Z,12.3
2017-08-22T04:06:06.487Z,12.3
2017-08-22T04:35:42.057Z,13.3
2017-08-22T05:04:02.974Z,15.5
2017-08-22T05:17:12.580Z,16.5
2017-08-22T05:20:14.797Z,16.9
2017-08-22T05:33:24.367Z,17.0
2017-08-22T05:37:27.468Z,17.1
2017-08-22T05:57:11.424Z,17.1
2017-08-22T06:01:14.628Z,17.3
2017-08-22T06:02:15.540Z,17.4
2017-08-22T06:10:21.397Z,17.8
2017-08-22T06:12:22.981Z,18.0
2017-08-22T06:26:33.187Z,17.2
2017-08-22T06:28:34.825Z,17.2
2017-08-22T07:16:08.772Z,17.7
2017-08-22T07:22:16.275Z,17.7
2017-08-22T07:23:17.025Z,17.6
2017-08-22T07:24:17.761Z,17.8
2017-08-22T07:25:18.559Z,18.0
2017-08-22T07:26:19.286Z,18.2
2017-08-22T07:27:20.144Z,18.3
2017-08-22T07:28:20.817Z,18.4
2017-08-22T07:29:21.519Z,18.6
2017-08-22T07:30:22.345Z,18.8
2017-08-22T07:31:23.061Z,19.0
2017-08-22T07:32:23.759Z,19.1
2017-08-22T07:33:24.614Z,19.2
2017-08-22T07:34:25.306Z,19.2
2017-08-22T07:35:26.009Z,19.2
2017-08-22T07:36:26.779Z,19.3
2017-08-22T07:37:27.506Z,19.2
2017-08-22T07:38:28.203Z,19.1
2017-08-22T07:39:28.921Z,19.1
2017-08-22T07:40:29.663Z,19.0
2017-08-22T07:41:30.395Z,18.6
2017-08-22T07:42:31.284Z,18.5
2017-08-22T07:43:31.996Z,18.5
2017-08-22T07:44:32.709Z,18.7
2017-08-22T07:45:33.429Z,18.7
2017-08-22T07:46:34.256Z,18.7
2017-08-22T07:47:34.956Z,18.7
2017-08-22T07:48:35.638Z,19.0
2017-08-22T07:49:36.376Z,19.2
2017-08-22T07:50:37.081Z,19.2
2017-08-22T07:51:37.888Z,19.5
2017-08-22T07:52:38.618Z,19.5
2017-08-22T07:53:39.379Z,19.4
2017-08-22T07:54:40.122Z,19.4
2017-08-22T07:55:40.862Z,19.6
2017-08-22T07:56:41.621Z,19.7
2017-08-22T07:57:42.354Z,19.9
2017-08-22T07:58:43.076Z,19.8
2017-08-22T07:59:43.845Z,19.9
2017-08-22T08:00:44.630Z,19.9
2017-08-22T08:01:45.344Z,19.8
2017-08-22T08:02:46.161Z,20.0
2017-08-22T08:03:46.948Z,20.2
2017-08-22T08:04:47.670Z,20.5
2017-08-22T08:05:48.396Z,20.6
2017-08-22T08:06:49.119Z,20.6
2017-08-22T08:07:49.894Z,20.9
2017-08-22T08:08:50.632Z,21.5
2017-08-22T08:09:51.394Z,21.5
2017-08-22T08:10:52.264Z,21.4
2017-08-22T08:11:53.021Z,21.2
2017-08-22T08:12:53.895Z,20.7
2017-08-22T08:13:54.625Z,20.4
2017-08-22T08:14:55.394Z,20.2
2017-08-22T08:15:56.076Z,20.1
2017-08-22T08:16:56.869Z,20.0
2017-08-22T08:17:57.639Z,20.4
2017-08-22T08:18:58.376Z,20.9
2017-08-22T08:19:59.097Z,21.0
2017-08-22T08:20:59.874Z,21.5
2017-08-22T08:22:00.586Z,22.3
2017-08-22T08:23:01.414Z,22.7
2017-08-22T08:24:02.517Z,23.3
2017-08-22T08:25:03.335Z,23.8
2017-08-22T08:26:04.068Z,24.2
2017-08-22T08:27:04.805Z,24.6
2017-08-22T08:28:05.554Z,24.9
2017-08-22T08:29:06.315Z,25.3
2017-08-22T08:30:07.085Z,25.5
2017-08-22T08:31:07.812Z,25.1
2017-08-22T08:32:08.510Z,25.1
2017-08-22T08:33:09.231Z,25.3
2017-08-22T08:34:09.984Z,25.1
2017-08-22T08:35:10.663Z,24.9
2017-08-22T08:36:11.429Z,25.1
2017-08-22T08:37:12.128Z,25.2
2017-08-22T08:38:12.845Z,25.5
2017-08-22T08:39:13.570Z,25.7
2017-08-22T08:40:14.302Z,25.6
2017-08-22T08:41:15.017Z,25.9
2017-08-22T08:42:15.721Z,25.8
2017-08-22T08:43:16.432Z,25.6
2017-08-22T08:44:17.175Z,25.4
2017-08-22T08:45:17.908Z,25.3
2017-08-22T08:46:18.740Z,25.7
2017-08-22T08:47:19.451Z,26.2
2017-08-22T08:48:20.300Z,26.4
2017-08-22T08:49:21.171Z,26.6
2017-08-22T08:50:21.945Z,26.8
2017-08-22T08:51:22.645Z,26.4
2017-08-22T08:52:23.483Z,26.4
2017-08-22T08:53:24.332Z,26.3
2017-08-22T08:54:25.055Z,26.4
2017-08-22T08:55:25.800Z,26.4
2017-08-22T08:56:26.517Z,26.4
2017-08-22T08:57:27.268Z,26.1
2017-08-22T08:58:28.018Z,25.6
2017-08-22T08:59:28.712Z,25.5
2017-08-22T09:00:29.604Z,25.3
2017-08-22T09:01:30.348Z,25.7
2017-08-22T09:02:31.097Z,26.2
2017-08-22T09:03:31.821Z,26.6
2017-08-22T09:04:32.592Z,27.2
2017-08-22T09:05:33.304Z,27.5
2017-08-22T09:06:34.034Z,27.6
2017-08-22T09:07:34.847Z,27.4
2017-08-22T09:08:35.562Z,26.9
2017-08-22T09:09:36.305Z,27.1
2017-08-22T09:10:36.993Z,27.1
2017-08-22T09:11:37.803Z,27.3
2017-08-22T09:12:38.488Z,27.4
2017-08-22T09:13:39.254Z,27.3
2017-08-22T09:14:39.976Z,27.1
2017-08-22T09:15:40.696Z,27.4
2017-08-22T09:16:41.414Z,27.4
2017-08-22T09:17:42.155Z,27.0
2017-08-22T09:18:42.874Z,27.1
2017-08-22T09:19:43.637Z,27.1
2017-08-22T09:20:44.384Z,26.8
2017-08-22T09:21:45.103Z,26.3
2017-08-22T09:22:45.843Z,25.9
2017-08-22T09:23:46.643Z,25.5
2017-08-22T09:24:47.385Z,25.3
2017-08-22T09:25:48.156Z,25.6
2017-08-22T09:26:48.844Z,25.5
2017-08-22T09:27:49.579Z,25.2
2017-08-22T09:28:50.296Z,24.9
2017-08-22T09:29:50.997Z,24.7
2017-08-22T09:30:51.732Z,24.6
2017-08-22T09:31:52.451Z,24.6
2017-08-22T09:32:53.219Z,24.4
2017-08-22T09:33:53.924Z,24.2
2017-08-22T09:34:54.636Z,23.9
2017-08-22T09:35:55.419Z,24.0
2017-08-22T09:36:56.170Z,24.0
2017-08-22T09:37:56.883Z,24.3
2017-08-22T09:38:57.622Z,24.6
2017-08-22T09:39:58.351Z,24.3
2017-08-22T09:40:59.182Z,24.1
2017-08-22T09:41:59.868Z,23.9
2017-08-22T09:43:00.673Z,23.8
2017-08-22T09:44:01.404Z,23.8
2017-08-22T09:45:02.119Z,23.7
2017-08-22T09:46:02.832Z,23.5
2017-08-22T09:47:03.632Z,23.2
2017-08-22T09:48:04.344Z,23.1
2017-08-22T09:49:05.059Z,23.2
2017-08-22T09:50:06.268Z,23.0
2017-08-22T09:51:06.943Z,23.1
2017-08-22T09:52:07.688Z,23.2
2017-08-22T09:53:08.416Z,23.3
2017-08-22T09:54:09.134Z,23.5
2017-08-22T09:55:09.909Z,23.7
2017-08-22T09:56:10.639Z,23.7
2017-08-22T09:57:11.362Z,23.7
2017-08-22T09:58:12.086Z,23.6
2017-08-22T09:59:12.780Z,23.6
2017-08-22T10:00:13.562Z,23.6
2017-08-22T10:01:14.303Z,23.7
2017-08-22T10:02:14.988Z,23.8
2017-08-22T10:03:15.804Z,23.7
2017-08-22T10:04:16.512Z,23.5
2017-08-22T10:05:17.281Z,23.4
2017-08-22T10:06:17.983Z,23.2
2017-08-22T10:07:18.740Z,22.9
2017-08-22T10:08:19.483Z,22.9
2017-08-22T10:09:20.136Z,22.9
2017-08-22T10:10:21.088Z,23.0
2017-08-22T10:11:21.779Z,23.0
2017-08-22T10:12:22.532Z,23.0
2017-08-22T10:13:23.244Z,23.2
2017-08-22T10:14:23.987Z,23.1
2017-08-22T10:15:24.734Z,23.2
2017-08-22T10:16:25.425Z,23.2
2017-08-22T10:17:26.169Z,23.2
2017-08-22T10:18:26.982Z,23.3
2017-08-22T10:19:27.645Z,23.4
2017-08-22T10:20:28.382Z,23.7
2017-08-22T10:21:29.079Z,24.0
2017-08-22T10:22:29.816Z,24.0
2017-08-22T10:23:30.618Z,23.8
2017-08-22T10:24:31.315Z,23.8
2017-08-22T10:25:32.084Z,23.7
2017-08-22T10:26:32.797Z,23.7
2017-08-22T10:27:33.522Z,23.8
2017-08-22T10:28:34.265Z,23.8
2017-08-22T10:29:35.008Z,23.9
2017-08-22T10:30:35.760Z,23.8
2017-08-22T10:31:36.559Z,23.7
2017-08-22T10:32:37.219Z,23.8
2017-08-22T10:33:37.948Z,23.9
2017-08-22T10:34:38.704Z,24.2
2017-08-22T10:35:39.462Z,24.4
2017-08-22T10:36:40.144Z,24.5
2017-08-22T10:37:40.966Z,24.5
2017-08-22T10:38:41.690Z,24.7
2017-08-22T10:39:42.395Z,24.7
2017-08-22T10:40:43.158Z,24.7
2017-08-22T10:41:43.931Z,24.9
2017-08-22T10:42:44.625Z,24.8
2017-08-22T10:43:45.352Z,24.9
2017-08-22T10:44:46.113Z,24.9
2017-08-22T10:45:46.923Z,25.0
2017-08-22T10:46:47.655Z,24.8
2017-08-22T10:47:48.623Z,24.7
2017-08-22T10:48:49.355Z,24.4
2017-08-22T10:49:50.134Z,24.4
2017-08-22T10:50:50.840Z,24.6
2017-08-22T10:51:51.562Z,24.8
2017-08-22T10:52:52.312Z,24.9
2017-08-22T10:53:53.033Z,24.9
2017-08-22T10:54:53.780Z,24.8
2017-08-22T10:55:54.499Z,24.7
2017-08-22T10:56:55.236Z,24.4
2017-08-22T10:57:56.072Z,24.4
2017-08-22T10:58:56.863Z,24.3
2017-08-22T10:59:57.647Z,24.3
2017-08-22T11:00:58.423Z,24.1
2017-08-22T11:01:59.448Z,24.1
2017-08-22T11:03:00.176Z,23.9
2017-08-22T11:04:00.877Z,23.7
2017-08-22T11:05:01.607Z,23.6
2017-08-22T11:06:02.351Z,23.7
2017-08-22T11:07:03.114Z,23.5
2017-08-22T11:08:03.829Z,23.6
2017-08-22T11:09:04.592Z,23.7
2017-08-22T11:10:05.632Z,23.7
2017-08-22T11:11:06.292Z,23.6
2017-08-22T11:12:07.062Z,23.6
2017-08-22T11:13:07.950Z,23.7
2017-08-22T11:14:08.696Z,23.3
2017-08-22T11:15:09.588Z,23.4
2017-08-22T11:16:10.463Z,23.3
2017-08-22T11:17:11.209Z,23.4
2017-08-22T11:18:11.934Z,23.3
2017-08-22T11:19:12.857Z,23.3
2017-08-22T11:20:13.800Z,23.2
2017-08-22T11:21:14.616Z,23.0
2017-08-22T11:22:15.348Z,22.8
2017-08-22T11:23:16.134Z,22.8
2017-08-22T11:24:16.820Z,22.9
2017-08-22T11:25:17.743Z,23.1
2017-08-22T11:26:18.455Z,23.1
2017-08-22T11:27:19.160Z,22.9
2017-08-22T11:28:19.878Z,22.9
2017-08-22T11:29:20.652Z,22.9
2017-08-22T11:30:21.572Z,22.9
2017-08-22T11:31:22.287Z,22.8
2017-08-22T11:32:23.303Z,22.9
2017-08-22T11:33:23.974Z,22.9
2017-08-22T11:34:24.730Z,23.0
2017-08-22T11:35:25.519Z,23.3
2017-08-22T11:36:26.243Z,23.3
2017-08-22T11:37:27.017Z,23.4
2017-08-22T11:38:27.722Z,23.5
2017-08-22T11:39:28.483Z,23.5
2017-08-22T11:40:29.199Z,23.6
2017-08-22T11:41:30.024Z,23.7
2017-08-22T11:42:30.752Z,23.7
2017-08-22T11:43:31.496Z,23.7
2017-08-22T11:44:32.266Z,23.7
2017-08-22T11:45:33.055Z,23.7
2017-08-22T11:46:33.818Z,23.8
2017-08-22T11:47:34.579Z,23.7
2017-08-22T11:48:35.284Z,23.4
2017-08-22T11:49:36.054Z,23.5
2017-08-22T11:50:36.832Z,23.3
2017-08-22T11:51:37.509Z,23.4
2017-08-22T11:52:38.316Z,23.4
2017-08-22T11:53:39.216Z,23.6
2017-08-22T11:54:39.960Z,23.8
2017-08-22T11:55:40.791Z,23.6
2017-08-22T11:56:41.479Z,23.6
2017-08-22T11:57:42.351Z,23.7
2017-08-22T11:58:43.074Z,23.7
2017-08-22T11:59:43.728Z,23.7
2017-08-22T12:00:44.552Z,23.8
2017-08-22T12:01:45.339Z,23.9
2017-08-22T12:02:46.148Z,24.1
2017-08-22T12:03:46.895Z,24.2
2017-08-22T12:04:47.614Z,24.3
2017-08-22T12:05:48.441Z,24.4
2017-08-22T12:06:49.206Z,24.5
2017-08-22T12:07:49.953Z,24.6
2017-08-22T12:08:50.698Z,24.6
2017-08-22T12:09:51.501Z,24.4
2017-08-22T12:10:52.310Z,24.4
2017-08-22T12:11:53.088Z,24.4
2017-08-22T12:12:53.753Z,24.3
2017-08-22T12:13:54.496Z,24.6
2017-08-22T12:14:55.263Z,24.4
2017-08-22T12:15:55.985Z,24.3
2017-08-22T12:16:56.823Z,24.2
2017-08-22T12:17:57.537Z,24.0
2017-08-22T12:18:58.313Z,23.9
2017-08-22T12:19:59.061Z,23.8
2017-08-22T12:20:59.775Z,23.7
2017-08-22T12:22:00.429Z,23.7
2017-08-22T12:23:01.189Z,23.6
2017-08-22T12:24:01.876Z,23.6
2017-08-22T12:25:02.764Z,23.7
2017-08-22T12:26:03.426Z,23.8
2017-08-22T12:27:04.190Z,23.8
2017-08-22T12:28:04.921Z,23.8
2017-08-22T12:29:05.671Z,23.9
2017-08-22T12:30:06.413Z,23.8
2017-08-22T12:31:07.177Z,24.0
2017-08-22T12:32:07.926Z,24.1
2017-08-22T12:33:08.692Z,24.2
2017-08-22T12:34:09.406Z,24.1
2017-08-22T12:35:10.253Z,24.2
2017-08-22T12:36:11.130Z,24.2
2017-08-22T12:37:11.944Z,24.2
2017-08-22T12:38:12.728Z,24.2
2017-08-22T12:39:13.433Z,24.1
2017-08-22T12:40:14.173Z,24.2
2017-08-22T12:42:30.567Z,24.2
2017-08-22T12:43:31.553Z,24.2
2017-08-22T12:44:32.344Z,24.0
2017-08-22T12:45:33.051Z,24.0
2017-08-22T12:46:34.237Z,24.0
2017-08-22T12:47:35.003Z,24.0
2017-08-22T12:48:35.737Z,24.0
2017-08-22T12:49:36.448Z,24.1
2017-08-22T12:50:37.172Z,24.2
2017-08-22T12:51:37.932Z,24.1
2017-08-22T12:52:38.715Z,24.1
2017-08-22T12:53:41.056Z,24.1
2017-08-22T12:54:41.711Z,24.2
2017-08-22T12:55:42.492Z,24.2
2017-08-22T12:56:43.223Z,24.4
2017-08-22T12:57:43.967Z,24.5
2017-08-22T12:58:44.822Z,24.7
2017-08-22T12:59:45.575Z,24.6
2017-08-22T13:00:46.488Z,24.6
2017-08-22T13:01:47.222Z,24.6
2017-08-22T13:02:47.889Z,24.6
2017-08-22T13:03:48.665Z,24.7
2017-08-22T13:04:49.447Z,24.9
2017-08-22T13:05:50.255Z,24.9
2017-08-22T13:06:51.329Z,24.8
2017-08-22T13:07:52.088Z,24.8
2017-08-22T13:08:52.851Z,24.9
2017-08-22T13:09:53.851Z,24.8
2017-08-22T13:10:54.883Z,24.9
2017-08-22T13:11:55.582Z,25.0
2017-08-22T13:12:56.401Z,25.0
2017-08-22T13:13:57.146Z,25.0
2017-08-22T13:14:58.014Z,25.0
2017-08-22T13:15:58.902Z,25.2
2017-08-22T13:16:59.666Z,25.0
2017-08-22T13:18:01.283Z,25.0
2017-08-22T13:19:02.198Z,24.9
2017-08-22T13:20:02.900Z,24.7
2017-08-22T13:21:03.650Z,24.6
2017-08-22T13:22:04.547Z,24.4
2017-08-22T13:23:05.232Z,24.2
2017-08-22T13:24:06.041Z,24.1
2017-08-22T13:25:07.050Z,24.0
2017-08-22T13:26:07.815Z,24.1
2017-08-22T13:27:08.543Z,23.9
2017-08-22T13:28:09.279Z,23.7
2017-08-22T13:29:10.082Z,23.7
2017-08-22T13:30:10.881Z,23.6
2017-08-22T13:31:11.842Z,23.4
2017-08-22T13:32:13.499Z,23.4
2017-08-22T13:33:14.564Z,23.4
2017-08-22T13:34:15.513Z,23.2
2017-08-22T13:35:16.376Z,23.0
2017-08-22T13:36:17.128Z,22.9
2017-08-22T13:37:18.150Z,22.8
2017-08-22T13:38:19.118Z,22.9
2017-08-22T13:39:20.033Z,22.9
2017-08-22T13:40:20.786Z,22.8
2017-08-22T13:41:21.565Z,23.0
2017-08-22T13:42:22.648Z,22.9
2017-08-22T13:43:23.441Z,22.9
2017-08-22T13:44:24.269Z,23.0
2017-08-22T13:45:25.405Z,23.1
2017-08-22T13:46:27.023Z,23.2
2017-08-22T13:47:27.982Z,23.0
2017-08-22T13:48:28.709Z,23.1
2017-08-22T13:49:29.485Z,23.2
2017-08-22T13:50:30.239Z,23.1
2017-08-22T13:51:31.070Z,23.2
2017-08-22T13:52:31.749Z,23.2
2017-08-22T13:53:32.757Z,23.1
2017-08-22T13:54:33.536Z,23.1
2017-08-22T13:55:34.270Z,23.0
2017-08-22T13:56:35.057Z,23.0
2017-08-22T13:57:36.072Z,23.2
2017-08-22T13:58:36.912Z,22.9
2017-08-22T13:59:37.708Z,23.0
2017-08-22T14:00:38.715Z,23.0
2017-08-22T14:01:40.069Z,23.0
2017-08-22T14:02:41.311Z,23.1
2017-08-22T14:03:43.125Z,23.1
2017-08-22T14:04:43.942Z,23.0
2017-08-22T14:05:44.818Z,23.1
2017-08-22T14:06:45.722Z,23.2
2017-08-22T14:09:02.062Z,23.0
2017-08-22T14:10:02.816Z,23.1
2017-08-22T14:11:03.547Z,23.0
2017-08-22T14:12:04.305Z,22.9
2017-08-22T14:13:05.102Z,22.9
2017-08-22T14:14:05.815Z,22.9
2017-08-22T14:15:06.719Z,22.8
2017-08-22T14:16:07.928Z,22.9
2017-08-22T14:17:08.801Z,22.7
2017-08-22T14:18:09.585Z,22.7
2017-08-22T14:19:10.468Z,22.5
2017-08-22T14:20:11.211Z,22.5
2017-08-22T14:21:12.209Z,22.5
2017-08-22T14:22:13.018Z,22.5
2017-08-22T14:23:13.808Z,22.4
2017-08-22T14:24:14.588Z,22.3
2017-08-22T14:25:15.427Z,22.4
2017-08-22T14:26:16.415Z,22.5
2017-08-22T14:27:17.242Z,22.7
2017-08-22T14:28:18.071Z,22.8
2017-08-22T14:29:18.844Z,22.7
2017-08-22T14:30:19.602Z,22.7
2017-08-22T14:31:20.576Z,22.8
2017-08-22T14:32:21.301Z,22.8
2017-08-22T14:33:22.061Z,22.9
2017-08-22T14:34:22.801Z,23.1
2017-08-22T14:35:23.613Z,23.1
2017-08-22T14:36:24.472Z,23.0
2017-08-22T14:37:25.224Z,22.9
2017-08-22T14:38:25.975Z,22.8
2017-08-22T14:39:26.784Z,22.8
2017-08-22T14:41:43.105Z,22.7
2017-08-22T14:42:43.865Z,22.6
2017-08-22T14:43:44.642Z,22.6
2017-08-22T14:44:45.410Z,22.5
2017-08-22T14:45:46.558Z,22.4
2017-08-22T14:46:47.473Z,22.3
2017-08-22T14:47:48.350Z,22.4
2017-08-22T14:48:49.107Z,22.4
2017-08-22T14:49:49.949Z,22.3
2017-08-22T14:50:50.762Z,22.4
2017-08-22T14:51:51.801Z,22.4
2017-08-22T14:52:52.637Z,22.4
2017-08-22T14:53:53.501Z,22.5
2017-08-22T14:54:54.985Z,22.3
2017-08-22T14:55:55.808Z,22.3
2017-08-22T14:56:56.715Z,22.3
2017-08-22T14:57:57.670Z,22.3
2017-08-22T14:58:58.713Z,22.4
2017-08-22T14:59:59.889Z,22.4
2017-08-22T15:02:16.247Z,22.5
2017-08-22T15:03:17.162Z,22.5
2017-08-22T15:04:18.127Z,22.4
2017-08-22T15:05:19.027Z,22.4
2017-08-22T15:06:19.910Z,22.3
2017-08-22T15:07:20.669Z,22.1
2017-08-22T15:08:21.458Z,21.9
2017-08-22T15:09:22.399Z,21.7
2017-08-22T15:10:23.333Z,21.6
2017-08-22T15:11:24.118Z,21.5
2017-08-22T15:12:25.081Z,21.3
2017-08-22T15:13:25.835Z,21.5
2017-08-22T15:14:27.030Z,21.5
2017-08-22T15:15:27.926Z,21.6
2017-08-22T15:16:29.329Z,21.6
2017-08-22T15:17:30.332Z,21.7
2017-08-22T15:18:31.203Z,21.5
2017-08-22T15:19:32.386Z,21.5
2017-08-22T15:20:33.256Z,21.3
2017-08-22T15:21:34.092Z,21.3
2017-08-22T15:22:34.874Z,21.3
2017-08-22T15:23:36.188Z,21.4
2017-08-22T15:24:36.948Z,21.4
2017-08-22T15:25:37.697Z,21.4
2017-08-22T15:26:38.487Z,21.6
2017-08-22T15:27:39.356Z,21.4
2017-08-22T15:28:40.365Z,21.4
2017-08-22T15:29:41.799Z,21.3
2017-08-22T15:30:42.744Z,21.2
2017-08-22T15:31:44.025Z,21.3
2017-08-22T15:32:45.297Z,21.3
2017-08-22T15:33:46.175Z,21.4
2017-08-22T15:34:47.135Z,21.5
2017-08-22T15:35:48.071Z,21.6
2017-08-22T15:36:48.838Z,21.6
2017-08-22T15:37:49.617Z,21.6
2017-08-22T15:38:50.499Z,21.6
2017-08-22T15:39:51.375Z,21.6
2017-08-22T15:40:52.170Z,21.7
2017-08-22T15:41:53.066Z,21.6
2017-08-22T15:42:53.892Z,21.5
2017-08-22T15:43:54.872Z,21.5
2017-08-22T15:44:55.922Z,21.5
2017-08-22T15:45:56.785Z,21.4
2017-08-22T15:46:57.540Z,21.4
2017-08-22T15:47:58.407Z,21.3
2017-08-22T15:48:59.126Z,21.3
2017-08-22T15:50:00.280Z,21.3
2017-08-22T15:51:01.441Z,21.4
2017-08-22T15:52:02.366Z,21.3
2017-08-22T15:53:03.170Z,21.3
2017-08-22T15:54:03.983Z,21.4
2017-08-22T15:55:04.743Z,21.5
2017-08-22T15:56:05.560Z,21.5
2017-08-22T15:57:06.323Z,21.5
2017-08-22T15:58:07.122Z,21.5
2017-08-22T15:59:08.252Z,21.5
2017-08-22T16:00:09.148Z,21.5
2017-08-22T16:01:09.878Z,21.4
2017-08-22T16:02:10.639Z,21.4
2017-08-22T16:03:11.589Z,21.3
2017-08-22T16:04:12.817Z,21.3
2017-08-22T16:05:13.843Z,21.4
2017-08-22T16:06:14.773Z,21.2
2017-08-22T16:07:15.544Z,21.1
2017-08-22T16:08:16.283Z,21.3
2017-08-22T16:09:17.029Z,21.2
2017-08-22T16:10:17.864Z,21.2
2017-08-22T16:11:18.711Z,21.2
2017-08-22T16:12:19.482Z,21.3
2017-08-22T16:13:20.307Z,21.3
2017-08-22T16:14:21.054Z,21.3
2017-08-22T16:15:21.992Z,21.3
2017-08-22T16:16:22.874Z,21.1
2017-08-22T16:17:23.745Z,21.1
2017-08-22T16:18:24.539Z,21.1
2017-08-22T16:19:25.308Z,20.9
2017-08-22T16:20:26.086Z,21.0
2017-08-22T16:21:26.821Z,21.1
2017-08-22T16:22:27.568Z,21.0
2017-08-22T16:23:28.438Z,21.0
2017-08-22T16:24:29.176Z,21.1
2017-08-22T16:25:30.075Z,21.1
2017-08-22T16:26:30.958Z,21.1
2017-08-22T16:27:31.791Z,21.0
2017-08-22T16:28:32.620Z,21.1
2017-08-22T16:29:33.900Z,21.0
2017-08-22T16:30:34.697Z,21.0
2017-08-22T16:31:35.842Z,21.1
2017-08-22T16:32:36.663Z,21.2
2017-08-22T16:33:37.489Z,21.2
2017-08-22T16:34:38.301Z,21.1
2017-08-22T16:35:39.758Z,21.2
2017-08-22T16:36:40.519Z,21.2
2017-08-22T16:37:42.317Z,21.3
2017-08-22T16:38:43.244Z,21.4
2017-08-22T16:39:44.030Z,21.4
2017-08-22T16:40:44.808Z,21.6
2017-08-22T16:41:45.584Z,21.5
2017-08-22T16:42:46.263Z,21.6
2017-08-22T16:43:47.091Z,21.7
2017-08-22T16:44:47.788Z,21.6
2017-08-22T16:45:49.092Z,21.7
2017-08-22T16:46:49.784Z,21.7
2017-08-22T16:47:50.548Z,21.8
2017-08-22T16:48:51.331Z,21.8
2017-08-22T16:49:52.114Z,21.9
2017-08-22T16:50:52.947Z,21.9
2017-08-22T16:51:53.661Z,22.0
2017-08-22T16:52:54.517Z,22.1
2017-08-22T16:53:55.333Z,22.0
2017-08-22T16:54:56.128Z,22.0
2017-08-22T16:55:57.205Z,22.1
2017-08-22T16:56:58.038Z,22.2
2017-08-22T16:57:58.710Z,22.2
2017-08-22T16:58:59.472Z,22.1
2017-08-22T17:00:00.379Z,22.1
2017-08-22T17:01:01.185Z,22.2
2017-08-22T17:02:02.444Z,22.2
2017-08-22T17:03:03.101Z,22.2
2017-08-22T17:04:04.087Z,22.3
2017-08-22T17:05:05.016Z,22.2
2017-08-22T17:06:05.788Z,22.2
2017-08-22T17:07:06.557Z,22.2
2017-08-22T17:08:07.312Z,22.2
2017-08-22T17:09:08.026Z,22.1
2017-08-22T17:10:08.947Z,22.2
2017-08-22T17:11:09.701Z,22.2
2017-08-22T17:12:10.457Z,22.2
2017-08-22T17:13:11.523Z,22.2
2017-08-22T17:14:12.276Z,22.2
2017-08-22T17:15:12.988Z,22.1
2017-08-22T17:16:13.752Z,22.2
2017-08-22T17:17:14.423Z,22.1
2017-08-22T17:18:15.300Z,22.1
2017-08-22T17:19:16.093Z,22.0
2017-08-22T17:20:16.781Z,22.0
2017-08-22T17:21:17.573Z,22.1
2017-08-22T17:22:18.308Z,21.8
2017-08-22T17:23:19.423Z,21.8
2017-08-22T17:24:20.122Z,21.7
2017-08-22T17:25:20.886Z,21.7
2017-08-22T17:26:21.649Z,21.6
2017-08-22T17:27:22.418Z,21.5
2017-08-22T17:28:23.129Z,21.5
2017-08-22T17:29:23.938Z,21.5
2017-08-22T17:30:24.854Z,21.4
2017-08-22T17:31:25.616Z,21.4
2017-08-22T17:32:26.327Z,21.4
2017-08-22T17:33:27.033Z,21.4
2017-08-22T17:34:27.769Z,21.4
2017-08-22T17:35:28.555Z,21.5
2017-08-22T17:36:29.839Z,21.5
2017-08-22T17:37:30.551Z,21.4
2017-08-22T17:38:31.310Z,21.4
2017-08-22T17:39:32.169Z,21.3
2017-08-22T17:40:32.873Z,21.3
2017-08-22T17:41:33.777Z,21.3
2017-08-22T17:42:34.602Z,21.2
2017-08-22T17:43:36.421Z,21.1
2017-08-22T17:44:37.082Z,21.0
2017-08-22T17:45:37.894Z,21.0
2017-08-22T17:46:39.553Z,20.9
2017-08-22T17:47:40.395Z,20.9
2017-08-22T17:48:41.458Z,20.8
2017-08-22T17:49:42.724Z,20.8
2017-08-22T17:50:43.380Z,20.8
2017-08-22T17:51:45.595Z,20.8
2017-08-22T17:52:46.120Z,20.8
2017-08-22T17:53:47.196Z,20.8
2017-08-22T17:54:48.187Z,20.7
2017-08-22T17:55:49.017Z,20.8
2017-08-22T17:56:49.855Z,20.7
2017-08-22T17:57:51.086Z,20.7
2017-08-22T17:58:52.731Z,20.7
2017-08-22T17:59:53.533Z,20.7
2017-08-22T18:00:54.367Z,20.7
2017-08-22T18:01:55.282Z,20.6
2017-08-22T18:02:56.118Z,20.6
2017-08-22T18:03:57.022Z,20.6
2017-08-22T18:04:58.187Z,20.6
2017-08-22T18:07:14.693Z,20.6
2017-08-22T18:08:15.498Z,20.6
2017-08-22T18:09:16.457Z,20.5
2017-08-22T18:10:17.160Z,20.5
2017-08-22T18:11:18.269Z,20.4
2017-08-22T18:12:19.137Z,20.3
2017-08-22T18:13:19.945Z,20.4
2017-08-22T18:14:20.621Z,20.3
2017-08-22T18:15:21.484Z,20.3
2017-08-22T18:16:22.157Z,20.3
2017-08-22T18:17:23.036Z,20.2
2017-08-22T18:18:24.408Z,20.2
2017-08-22T18:19:25.115Z,20.2
2017-08-22T18:20:25.856Z,20.1
2017-08-22T18:21:26.623Z,20.0
2017-08-22T18:22:27.507Z,20.0
2017-08-22T18:23:28.375Z,20.0
2017-08-22T18:24:29.168Z,19.9
2017-08-22T18:25:29.988Z,19.9
2017-08-22T19:07:14.457Z,18.3
2017-08-22T20:02:11.816Z,17.0
2017-08-22T23:56:29.085Z,13.9
